sensor_id;sensor_type;location;lat;lon;timestamp;temperature;humidity
12720;DHT22;6424;48.520;11.228;2023-02-11T00:02:17;-3.40;99.90
12720;DHT22;6424;48.520;11.228;2023-02-11T00:04:59;-3.40;99.90
12720;DHT22;6424;48.520;11.228;2023-02-11T00:07:42;-3.30;99.90
12720;DHT22;6424;48.520;11.228;2023-02-11T00:10:22;-3.30;99.90
12720;DHT22;6424;48.520;11.228;2023-02-11T00:13:03;-3.30;99.90
12720;DHT22;6424;48.520;11.228;2023-02-11T00:15:44;-3.30;99.90
12720;DHT22;6424;48.520;11.228;2023-02-11T00:18:25;-3.30;99.90
12720;DHT22;6424;48.520;11.228;2023-02-11T00:21:26;-3.30;99.90
12720;DHT22;6424;48.520;11.228;2023-02-11T00:24:07;-3.20;99.90
12720;DHT22;6424;48.520;11.228;2023-02-11T00:26:48;-3.20;99.90
12720;DHT22;6424;48.520;11.228;2023-02-11T00:29:14;-3.10;99.90
12720;DHT22;6424;48.520;11.228;2023-02-11T00:31:54;-3.00;99.90
12720;DHT22;6424;48.520;11.228;2023-02-11T00:34:36;-2.90;99.90
12720;DHT22;6424;48.520;11.228;2023-02-11T00:37:17;-2.90;99.90
12720;DHT22;6424;48.520;11.228;2023-02-11T00:39:43;-2.80;99.90
12720;DHT22;6424;48.520;11.228;2023-02-11T00:42:24;-2.80;99.90
12720;DHT22;6424;48.520;11.228;2023-02-11T00:45:04;-2.80;99.90
12720;DHT22;6424;48.520;11.228;2023-02-11T00:47:45;-2.80;99.90
12720;DHT22;6424;48.520;11.228;2023-02-11T00:50:26;-2.80;99.90
12720;DHT22;6424;48.520;11.228;2023-02-11T00:53:07;-2.90;99.90
12720;DHT22;6424;48.520;11.228;2023-02-11T00:55:48;-2.90;99.90
12720;DHT22;6424;48.520;11.228;2023-02-11T00:58:14;-2.90;99.90
12720;DHT22;6424;48.520;11.228;2023-02-11T01:00:55;-3.00;99.90
12720;DHT22;6424;48.520;11.228;2023-02-11T01:03:36;-3.00;99.90
12720;DHT22;6424;48.520;11.228;2023-02-11T01:06:17;-3.10;99.90
12720;DHT22;6424;48.520;11.228;2023-02-11T01:08:57;-3.20;99.90
12720;DHT22;6424;48.520;11.228;2023-02-11T01:11:23;-3.20;99.90
12720;DHT22;6424;48.520;11.228;2023-02-11T01:14:04;-3.30;99.90
12720;DHT22;6424;48.520;11.228;2023-02-11T01:16:45;-3.30;99.90
12720;DHT22;6424;48.520;11.228;2023-02-11T01:19:25;-3.40;99.90
12720;DHT22;6424;48.520;11.228;2023-02-11T01:22:06;-3.40;99.90
12720;DHT22;6424;48.520;11.228;2023-02-11T01:24:47;-3.50;99.90
12720;DHT22;6424;48.520;11.228;2023-02-11T01:27:28;-3.50;99.90
12720;DHT22;6424;48.520;11.228;2023-02-11T01:29:54;-3.60;99.90
12720;DHT22;6424;48.520;11.228;2023-02-11T01:32:35;-3.60;99.90
12720;DHT22;6424;48.520;11.228;2023-02-11T01:35:15;-3.60;99.90
12720;DHT22;6424;48.520;11.228;2023-02-11T01:37:56;-3.60;99.90
12720;DHT22;6424;48.520;11.228;2023-02-11T01:40:37;-3.60;99.90
12720;DHT22;6424;48.520;11.228;2023-02-11T01:43:18;-3.70;99.90
12720;DHT22;6424;48.520;11.228;2023-02-11T01:49:15;-3.70;99.90
12720;DHT22;6424;48.520;11.228;2023-02-11T01:55:01;-3.70;99.90
12720;DHT22;6424;48.520;11.228;2023-02-11T01:58:04;-3.70;99.90
12720;DHT22;6424;48.520;11.228;2023-02-11T02:00:45;-3.70;99.90
12720;DHT22;6424;48.520;11.228;2023-02-11T02:03:27;-3.60;99.90
12720;DHT22;6424;48.520;11.228;2023-02-11T02:06:23;-3.60;99.90
12720;DHT22;6424;48.520;11.228;2023-02-11T02:09:10;-3.60;99.90
12720;DHT22;6424;48.520;11.228;2023-02-11T02:11:53;-3.50;99.90
12720;DHT22;6424;48.520;11.228;2023-02-11T02:14:37;-3.50;99.90
12720;DHT22;6424;48.520;11.228;2023-02-11T02:17:27;-3.50;99.90
12720;DHT22;6424;48.520;11.228;2023-02-11T02:20:02;-3.40;99.90
12720;DHT22;6424;48.520;11.228;2023-02-11T02:23:04;-3.50;99.90
12720;DHT22;6424;48.520;11.228;2023-02-11T02:38:23;-3.00;99.90
12720;DHT22;6424;48.520;11.228;2023-02-11T02:41:12;-2.90;99.90
12720;DHT22;6424;48.520;11.228;2023-02-11T02:43:53;-2.90;99.90
12720;DHT22;6424;48.520;11.228;2023-02-11T02:46:35;-2.90;99.90
12720;DHT22;6424;48.520;11.228;2023-02-11T02:49:16;-2.90;99.90
12720;DHT22;6424;48.520;11.228;2023-02-11T02:55:07;-2.90;99.90
12720;DHT22;6424;48.520;11.228;2023-02-11T03:01:02;-2.90;99.90
12720;DHT22;6424;48.520;11.228;2023-02-11T03:03:59;-3.00;99.90
12720;DHT22;6424;48.520;11.228;2023-02-11T03:06:54;-3.00;99.90
12720;DHT22;6424;48.520;11.228;2023-02-11T03:09:42;-3.10;99.90
12720;DHT22;6424;48.520;11.228;2023-02-11T03:12:27;-3.10;99.90
12720;DHT22;6424;48.520;11.228;2023-02-11T03:15:11;-3.10;99.90
12720;DHT22;6424;48.520;11.228;2023-02-11T03:17:53;-3.00;99.90
12720;DHT22;6424;48.520;11.228;2023-02-11T03:20:36;-2.90;99.90
12720;DHT22;6424;48.520;11.228;2023-02-11T03:26:17;-2.80;99.90
12720;DHT22;6424;48.520;11.228;2023-02-11T03:32:26;-2.70;99.90
12720;DHT22;6424;48.520;11.228;2023-02-11T03:35:16;-2.70;99.90
12720;DHT22;6424;48.520;11.228;2023-02-11T03:38:13;-2.70;99.90
12720;DHT22;6424;48.520;11.228;2023-02-11T03:40:55;-2.70;99.90
12720;DHT22;6424;48.520;11.228;2023-02-11T03:43:40;-2.70;99.90
12720;DHT22;6424;48.520;11.228;2023-02-11T03:46:31;-2.70;99.90
12720;DHT22;6424;48.520;11.228;2023-02-11T03:49:14;-2.80;99.90
12720;DHT22;6424;48.520;11.228;2023-02-11T03:51:57;-2.80;99.90
12720;DHT22;6424;48.520;11.228;2023-02-11T03:54:29;-2.80;99.90
12720;DHT22;6424;48.520;11.228;2023-02-11T03:57:10;-2.80;99.90
12720;DHT22;6424;48.520;11.228;2023-02-11T03:59:53;-2.90;99.90
12720;DHT22;6424;48.520;11.228;2023-02-11T04:02:35;-2.90;99.90
12720;DHT22;6424;48.520;11.228;2023-02-11T04:05:16;-2.80;99.90
12720;DHT22;6424;48.520;11.228;2023-02-11T04:07:57;-2.90;99.90
12720;DHT22;6424;48.520;11.228;2023-02-11T04:10:38;-2.90;99.90
12720;DHT22;6424;48.520;11.228;2023-02-11T04:13:19;-2.90;99.90
12720;DHT22;6424;48.520;11.228;2023-02-11T04:16:00;-2.90;99.90
12720;DHT22;6424;48.520;11.228;2023-02-11T04:18:41;-3.00;99.90
12720;DHT22;6424;48.520;11.228;2023-02-11T04:21:21;-3.00;99.90
12720;DHT22;6424;48.520;11.228;2023-02-11T04:24:02;-3.00;99.90
12720;DHT22;6424;48.520;11.228;2023-02-11T04:26:43;-2.90;99.90
12720;DHT22;6424;48.520;11.228;2023-02-11T04:29:24;-2.90;99.90
12720;DHT22;6424;48.520;11.228;2023-02-11T04:32:05;-2.90;99.90
12720;DHT22;6424;48.520;11.228;2023-02-11T04:34:45;-2.90;99.90
12720;DHT22;6424;48.520;11.228;2023-02-11T04:37:27;-2.80;99.90
12720;DHT22;6424;48.520;11.228;2023-02-11T04:40:08;-2.70;99.90
12720;DHT22;6424;48.520;11.228;2023-02-11T04:42:49;-2.60;99.90
12720;DHT22;6424;48.520;11.228;2023-02-11T04:45:29;-2.50;99.90
12720;DHT22;6424;48.520;11.228;2023-02-11T04:48:10;-2.50;99.90
12720;DHT22;6424;48.520;11.228;2023-02-11T04:50:36;-2.40;99.90
12720;DHT22;6424;48.520;11.228;2023-02-11T04:53:17;-2.30;99.90
12720;DHT22;6424;48.520;11.228;2023-02-11T04:55:58;-2.30;99.90
12720;DHT22;6424;48.520;11.228;2023-02-11T04:58:38;-2.20;99.90
12720;DHT22;6424;48.520;11.228;2023-02-11T05:01:19;-2.10;99.90
12720;DHT22;6424;48.520;11.228;2023-02-11T05:04:00;-2.00;99.90
12720;DHT22;6424;48.520;11.228;2023-02-11T05:06:41;-2.00;99.90
12720;DHT22;6424;48.520;11.228;2023-02-11T05:09:22;-2.00;99.90
12720;DHT22;6424;48.520;11.228;2023-02-11T05:12:03;-1.90;99.90
12720;DHT22;6424;48.520;11.228;2023-02-11T05:14:43;-1.90;99.90
12720;DHT22;6424;48.520;11.228;2023-02-11T05:17:24;-1.90;99.90
12720;DHT22;6424;48.520;11.228;2023-02-11T05:19:50;-1.90;99.90
12720;DHT22;6424;48.520;11.228;2023-02-11T05:22:30;-1.90;99.90
12720;DHT22;6424;48.520;11.228;2023-02-11T05:25:11;-1.80;99.90
12720;DHT22;6424;48.520;11.228;2023-02-11T05:27:52;-1.80;99.90
12720;DHT22;6424;48.520;11.228;2023-02-11T05:30:33;-1.70;99.90
12720;DHT22;6424;48.520;11.228;2023-02-11T05:33:14;-1.70;99.90
12720;DHT22;6424;48.520;11.228;2023-02-11T05:35:39;-1.70;99.90
12720;DHT22;6424;48.520;11.228;2023-02-11T05:38:20;-1.70;99.90
12720;DHT22;6424;48.520;11.228;2023-02-11T05:40:46;-1.70;99.90
12720;DHT22;6424;48.520;11.228;2023-02-11T05:43:27;-1.70;99.90
12720;DHT22;6424;48.520;11.228;2023-02-11T05:46:07;-1.70;99.90
12720;DHT22;6424;48.520;11.228;2023-02-11T05:48:48;-1.70;99.90
12720;DHT22;6424;48.520;11.228;2023-02-11T05:51:29;-1.60;99.90
12720;DHT22;6424;48.520;11.228;2023-02-11T05:53:55;-1.60;99.90
12720;DHT22;6424;48.520;11.228;2023-02-11T05:56:36;-1.60;99.90
12720;DHT22;6424;48.520;11.228;2023-02-11T05:59:17;-1.60;99.90
12720;DHT22;6424;48.520;11.228;2023-02-11T06:01:57;-1.70;99.90
12720;DHT22;6424;48.520;11.228;2023-02-11T06:04:38;-1.70;99.90
12720;DHT22;6424;48.520;11.228;2023-02-11T06:07:19;-1.70;99.90
12720;DHT22;6424;48.520;11.228;2023-02-11T06:09:45;-1.70;99.90
12720;DHT22;6424;48.520;11.228;2023-02-11T06:12:25;-1.70;99.90
12720;DHT22;6424;48.520;11.228;2023-02-11T06:15:07;-1.70;99.90
12720;DHT22;6424;48.520;11.228;2023-02-11T06:17:47;-1.60;99.90
12720;DHT22;6424;48.520;11.228;2023-02-11T06:20:28;-1.60;99.90
12720;DHT22;6424;48.520;11.228;2023-02-11T06:23:09;-1.60;99.90
12720;DHT22;6424;48.520;11.228;2023-02-11T06:25:50;-1.50;99.90
12720;DHT22;6424;48.520;11.228;2023-02-11T06:28:16;-1.50;99.90
12720;DHT22;6424;48.520;11.228;2023-02-11T06:31:02;-1.50;99.90
12720;DHT22;6424;48.520;11.228;2023-02-11T06:33:43;-1.50;99.90
12720;DHT22;6424;48.520;11.228;2023-02-11T06:36:24;-1.40;99.90
12720;DHT22;6424;48.520;11.228;2023-02-11T06:39:06;-1.40;99.90
12720;DHT22;6424;48.520;11.228;2023-02-11T06:41:46;-1.40;99.90
12720;DHT22;6424;48.520;11.228;2023-02-11T06:44:27;-1.30;99.90
12720;DHT22;6424;48.520;11.228;2023-02-11T06:47:08;-1.30;99.90
12720;DHT22;6424;48.520;11.228;2023-02-11T06:49:49;-1.30;99.90
12720;DHT22;6424;48.520;11.228;2023-02-11T06:52:29;-1.20;99.90
12720;DHT22;6424;48.520;11.228;2023-02-11T06:55:10;-1.20;99.90
12720;DHT22;6424;48.520;11.228;2023-02-11T06:57:51;-1.20;99.90
12720;DHT22;6424;48.520;11.228;2023-02-11T07:00:32;-1.10;99.90
12720;DHT22;6424;48.520;11.228;2023-02-11T07:03:12;-1.10;99.90
12720;DHT22;6424;48.520;11.228;2023-02-11T07:05:53;-1.10;99.90
12720;DHT22;6424;48.520;11.228;2023-02-11T07:08:35;-1.00;99.90
12720;DHT22;6424;48.520;11.228;2023-02-11T07:11:22;-1.00;99.90
12720;DHT22;6424;48.520;11.228;2023-02-11T07:14:06;-1.00;99.90
12720;DHT22;6424;48.520;11.228;2023-02-11T07:16:48;-1.00;99.90
12720;DHT22;6424;48.520;11.228;2023-02-11T07:19:28;-1.00;99.90
12720;DHT22;6424;48.520;11.228;2023-02-11T07:22:09;-1.00;99.90
12720;DHT22;6424;48.520;11.228;2023-02-11T07:24:50;-1.00;99.90
12720;DHT22;6424;48.520;11.228;2023-02-11T07:27:30;-0.90;99.90
12720;DHT22;6424;48.520;11.228;2023-02-11T07:30:12;-0.90;99.90
12720;DHT22;6424;48.520;11.228;2023-02-11T07:32:53;-0.80;99.90
12720;DHT22;6424;48.520;11.228;2023-02-11T07:35:34;-0.70;99.90
12720;DHT22;6424;48.520;11.228;2023-02-11T07:38:14;-0.70;99.90
12720;DHT22;6424;48.520;11.228;2023-02-11T07:40:59;-0.60;99.90
12720;DHT22;6424;48.520;11.228;2023-02-11T07:43:41;-0.60;99.90
12720;DHT22;6424;48.520;11.228;2023-02-11T07:46:25;-0.50;99.90
12720;DHT22;6424;48.520;11.228;2023-02-11T07:49:06;-0.50;99.90
12720;DHT22;6424;48.520;11.228;2023-02-11T07:51:47;-0.40;99.90
12720;DHT22;6424;48.520;11.228;2023-02-11T07:54:13;-0.40;99.90
12720;DHT22;6424;48.520;11.228;2023-02-11T07:56:54;-0.40;99.90
12720;DHT22;6424;48.520;11.228;2023-02-11T07:59:35;-0.40;99.90
12720;DHT22;6424;48.520;11.228;2023-02-11T08:02:16;-0.40;99.90
12720;DHT22;6424;48.520;11.228;2023-02-11T08:04:44;-0.30;99.90
12720;DHT22;6424;48.520;11.228;2023-02-11T08:07:25;-0.30;99.90
12720;DHT22;6424;48.520;11.228;2023-02-11T08:10:08;-0.30;99.90
12720;DHT22;6424;48.520;11.228;2023-02-11T08:12:48;-0.20;99.90
12720;DHT22;6424;48.520;11.228;2023-02-11T08:15:29;-0.10;99.90
12720;DHT22;6424;48.520;11.228;2023-02-11T08:18:10;0.00;99.90
12720;DHT22;6424;48.520;11.228;2023-02-11T08:20:51;0.10;99.90
12720;DHT22;6424;48.520;11.228;2023-02-11T08:23:16;0.20;99.90
12720;DHT22;6424;48.520;11.228;2023-02-11T08:26:05;0.30;99.90
12720;DHT22;6424;48.520;11.228;2023-02-11T08:28:47;0.40;99.90
12720;DHT22;6424;48.520;11.228;2023-02-11T08:31:40;0.40;99.90
12720;DHT22;6424;48.520;11.228;2023-02-11T08:34:21;0.50;99.90
12720;DHT22;6424;48.520;11.228;2023-02-11T08:37:02;0.60;99.90
12720;DHT22;6424;48.520;11.228;2023-02-11T08:39:42;0.70;99.90
12720;DHT22;6424;48.520;11.228;2023-02-11T08:42:24;0.70;99.90
12720;DHT22;6424;48.520;11.228;2023-02-11T08:45:05;0.70;99.90
12720;DHT22;6424;48.520;11.228;2023-02-11T08:47:46;0.80;99.90
12720;DHT22;6424;48.520;11.228;2023-02-11T08:50:26;0.80;99.90
12720;DHT22;6424;48.520;11.228;2023-02-11T08:53:08;0.80;99.90
12720;DHT22;6424;48.520;11.228;2023-02-11T08:55:50;0.80;99.90
12720;DHT22;6424;48.520;11.228;2023-02-11T08:58:31;0.90;99.90
12720;DHT22;6424;48.520;11.228;2023-02-11T09:01:23;1.00;99.90
12720;DHT22;6424;48.520;11.228;2023-02-11T09:03:50;1.10;99.90
12720;DHT22;6424;48.520;11.228;2023-02-11T09:06:31;1.20;99.90
12720;DHT22;6424;48.520;11.228;2023-02-11T09:09:13;1.50;99.90
12720;DHT22;6424;48.520;11.228;2023-02-11T09:11:39;1.60;99.90
12720;DHT22;6424;48.520;11.228;2023-02-11T09:14:22;1.70;99.90
12720;DHT22;6424;48.520;11.228;2023-02-11T09:16:50;1.70;99.90
12720;DHT22;6424;48.520;11.228;2023-02-11T09:19:31;1.60;99.90
12720;DHT22;6424;48.520;11.228;2023-02-11T09:22:11;1.60;99.90
12720;DHT22;6424;48.520;11.228;2023-02-11T09:24:52;1.60;99.90
12720;DHT22;6424;48.520;11.228;2023-02-11T09:27:33;1.60;99.90
12720;DHT22;6424;48.520;11.228;2023-02-11T09:30:14;1.70;99.90
12720;DHT22;6424;48.520;11.228;2023-02-11T09:32:54;1.70;99.90
12720;DHT22;6424;48.520;11.228;2023-02-11T09:35:35;1.70;99.90
12720;DHT22;6424;48.520;11.228;2023-02-11T09:38:01;1.90;99.90
12720;DHT22;6424;48.520;11.228;2023-02-11T09:40:43;2.00;99.90
12720;DHT22;6424;48.520;11.228;2023-02-11T09:43:36;2.10;99.90
12720;DHT22;6424;48.520;11.228;2023-02-11T09:46:21;2.30;99.90
12720;DHT22;6424;48.520;11.228;2023-02-11T09:49:03;2.30;99.90
12720;DHT22;6424;48.520;11.228;2023-02-11T09:51:57;2.30;99.90
12720;DHT22;6424;48.520;11.228;2023-02-11T09:57:56;2.50;99.90
12720;DHT22;6424;48.520;11.228;2023-02-11T10:00:43;2.60;99.90
12720;DHT22;6424;48.520;11.228;2023-02-11T10:03:58;2.70;99.90
12720;DHT22;6424;48.520;11.228;2023-02-11T10:06:51;2.80;99.90
12720;DHT22;6424;48.520;11.228;2023-02-11T10:18:48;3.20;99.90
12720;DHT22;6424;48.520;11.228;2023-02-11T10:22:20;3.40;99.90
12720;DHT22;6424;48.520;11.228;2023-02-11T10:25:15;3.60;99.90
12720;DHT22;6424;48.520;11.228;2023-02-11T10:27:58;3.70;99.90
12720;DHT22;6424;48.520;11.228;2023-02-11T10:30:53;3.80;99.90
12720;DHT22;6424;48.520;11.228;2023-02-11T10:33:51;3.90;99.90
12720;DHT22;6424;48.520;11.228;2023-02-11T10:36:35;4.00;99.90
12720;DHT22;6424;48.520;11.228;2023-02-11T10:39:19;4.10;99.90
12720;DHT22;6424;48.520;11.228;2023-02-11T10:42:05;4.20;99.90
12720;DHT22;6424;48.520;11.228;2023-02-11T10:44:56;4.30;99.90
12720;DHT22;6424;48.520;11.228;2023-02-11T10:47:38;4.30;99.90
12720;DHT22;6424;48.520;11.228;2023-02-11T10:50:27;4.40;99.90
12720;DHT22;6424;48.520;11.228;2023-02-11T10:53:26;4.50;99.90
12720;DHT22;6424;48.520;11.228;2023-02-11T10:56:10;4.60;99.90
12720;DHT22;6424;48.520;11.228;2023-02-11T11:04:33;4.90;99.90
12720;DHT22;6424;48.520;11.228;2023-02-11T11:10:05;4.70;99.90
12720;DHT22;6424;48.520;11.228;2023-02-11T11:12:48;4.60;99.90
12720;DHT22;6424;48.520;11.228;2023-02-11T11:15:30;4.60;99.90
12720;DHT22;6424;48.520;11.228;2023-02-11T11:18:16;4.60;99.90
12720;DHT22;6424;48.520;11.228;2023-02-11T11:21:00;4.70;99.90
12720;DHT22;6424;48.520;11.228;2023-02-11T11:26:44;5.10;99.90
12720;DHT22;6424;48.520;11.228;2023-02-11T11:32:18;5.50;99.90
12720;DHT22;6424;48.520;11.228;2023-02-11T11:35:03;5.50;99.90
12720;DHT22;6424;48.520;11.228;2023-02-11T11:37:52;5.50;99.90
12720;DHT22;6424;48.520;11.228;2023-02-11T11:40:34;5.40;99.90
12720;DHT22;6424;48.520;11.228;2023-02-11T11:43:18;5.40;99.90
12720;DHT22;6424;48.520;11.228;2023-02-11T11:46:00;5.40;99.90
12720;DHT22;6424;48.520;11.228;2023-02-11T11:48:45;5.50;99.90
12720;DHT22;6424;48.520;11.228;2023-02-11T11:51:29;5.50;99.90
12720;DHT22;6424;48.520;11.228;2023-02-11T11:54:12;5.50;99.90
12720;DHT22;6424;48.520;11.228;2023-02-11T11:57:03;5.50;99.90
12720;DHT22;6424;48.520;11.228;2023-02-11T11:59:46;5.40;99.90
12720;DHT22;6424;48.520;11.228;2023-02-11T12:05:57;5.40;99.90
12720;DHT22;6424;48.520;11.228;2023-02-11T12:12:10;5.30;99.90
12720;DHT22;6424;48.520;11.228;2023-02-11T12:27:03;5.60;99.90
12720;DHT22;6424;48.520;11.228;2023-02-11T12:30:01;5.70;99.90
12720;DHT22;6424;48.520;11.228;2023-02-11T12:35:52;5.80;99.90
12720;DHT22;6424;48.520;11.228;2023-02-11T12:59:45;6.20;99.90
12720;DHT22;6424;48.520;11.228;2023-02-11T13:06:04;6.40;99.90
12720;DHT22;6424;48.520;11.228;2023-02-11T13:08:58;6.50;99.90
12720;DHT22;6424;48.520;11.228;2023-02-11T13:11:38;6.60;99.90
12720;DHT22;6424;48.520;11.228;2023-02-11T13:14:28;6.60;99.90
12720;DHT22;6424;48.520;11.228;2023-02-11T13:17:29;6.60;99.90
12720;DHT22;6424;48.520;11.228;2023-02-11T13:20:31;6.50;99.90
12720;DHT22;6424;48.520;11.228;2023-02-11T13:23:25;6.50;99.90
12720;DHT22;6424;48.520;11.228;2023-02-11T13:32:16;6.40;99.90
12720;DHT22;6424;48.520;11.228;2023-02-11T13:34:57;6.40;99.90
12720;DHT22;6424;48.520;11.228;2023-02-11T13:37:38;6.40;99.90
12720;DHT22;6424;48.520;11.228;2023-02-11T13:40:26;6.50;99.90
12720;DHT22;6424;48.520;11.228;2023-02-11T13:43:22;6.40;99.90
12720;DHT22;6424;48.520;11.228;2023-02-11T13:46:06;6.40;99.90
12720;DHT22;6424;48.520;11.228;2023-02-11T13:48:51;6.40;99.90
12720;DHT22;6424;48.520;11.228;2023-02-11T13:51:35;6.40;99.90
12720;DHT22;6424;48.520;11.228;2023-02-11T13:54:03;6.40;99.90
12720;DHT22;6424;48.520;11.228;2023-02-11T13:56:35;6.40;99.90
12720;DHT22;6424;48.520;11.228;2023-02-11T14:09:31;6.30;99.90
12720;DHT22;6424;48.520;11.228;2023-02-11T14:12:30;6.30;99.90
12720;DHT22;6424;48.520;11.228;2023-02-11T14:17:52;6.00;99.90
12720;DHT22;6424;48.520;11.228;2023-02-11T14:20:35;5.90;99.90
12720;DHT22;6424;48.520;11.228;2023-02-11T14:23:22;6.00;99.90
12720;DHT22;6424;48.520;11.228;2023-02-11T14:29:14;6.00;99.90
12720;DHT22;6424;48.520;11.228;2023-02-11T14:41:49;5.90;99.90
12720;DHT22;6424;48.520;11.228;2023-02-11T14:44:33;5.90;99.90
12720;DHT22;6424;48.520;11.228;2023-02-11T14:47:28;5.90;99.90
12720;DHT22;6424;48.520;11.228;2023-02-11T14:50:27;5.90;99.90
12720;DHT22;6424;48.520;11.228;2023-02-11T14:53:17;5.90;99.90
12720;DHT22;6424;48.520;11.228;2023-02-11T14:55:58;5.90;99.90
12720;DHT22;6424;48.520;11.228;2023-02-11T14:58:45;5.90;99.90
12720;DHT22;6424;48.520;11.228;2023-02-11T15:01:40;6.00;99.90
12720;DHT22;6424;48.520;11.228;2023-02-11T15:04:32;5.90;99.90
12720;DHT22;6424;48.520;11.228;2023-02-11T15:07:14;5.90;99.90
12720;DHT22;6424;48.520;11.228;2023-02-11T15:09:56;5.90;99.90
12720;DHT22;6424;48.520;11.228;2023-02-11T15:12:36;5.90;99.90
12720;DHT22;6424;48.520;11.228;2023-02-11T15:15:17;5.90;99.90
12720;DHT22;6424;48.520;11.228;2023-02-11T15:18:00;5.80;99.90
12720;DHT22;6424;48.520;11.228;2023-02-11T15:20:41;5.80;99.90
12720;DHT22;6424;48.520;11.228;2023-02-11T15:23:25;5.80;99.90
12720;DHT22;6424;48.520;11.228;2023-02-11T15:26:16;5.80;99.90
12720;DHT22;6424;48.520;11.228;2023-02-11T15:28:58;5.70;99.90
12720;DHT22;6424;48.520;11.228;2023-02-11T15:31:39;5.70;99.90
12720;DHT22;6424;48.520;11.228;2023-02-11T15:34:07;5.70;99.90
12720;DHT22;6424;48.520;11.228;2023-02-11T15:36:48;5.60;99.90
12720;DHT22;6424;48.520;11.228;2023-02-11T15:39:37;5.50;99.90
12720;DHT22;6424;48.520;11.228;2023-02-11T15:42:29;5.50;99.90
12720;DHT22;6424;48.520;11.228;2023-02-11T15:50:39;5.30;99.90
12720;DHT22;6424;48.520;11.228;2023-02-11T15:56:23;5.20;99.90
12720;DHT22;6424;48.520;11.228;2023-02-11T15:59:26;5.10;99.90
12720;DHT22;6424;48.520;11.228;2023-02-11T16:02:25;5.00;99.90
12720;DHT22;6424;48.520;11.228;2023-02-11T16:05:24;4.90;99.90
12720;DHT22;6424;48.520;11.228;2023-02-11T16:08:21;4.80;99.90
12720;DHT22;6424;48.520;11.228;2023-02-11T16:10:59;4.60;99.90
12720;DHT22;6424;48.520;11.228;2023-02-11T16:13:45;4.60;99.90
12720;DHT22;6424;48.520;11.228;2023-02-11T16:16:31;4.50;99.90
12720;DHT22;6424;48.520;11.228;2023-02-11T16:19:13;4.40;99.90
12720;DHT22;6424;48.520;11.228;2023-02-11T16:21:59;4.30;99.90
12720;DHT22;6424;48.520;11.228;2023-02-11T16:24:41;4.20;99.90
12720;DHT22;6424;48.520;11.228;2023-02-11T16:27:38;4.20;99.90
12720;DHT22;6424;48.520;11.228;2023-02-11T16:30:27;4.20;99.90
12720;DHT22;6424;48.520;11.228;2023-02-11T16:33:10;4.10;99.90
12720;DHT22;6424;48.520;11.228;2023-02-11T16:35:51;4.10;99.90
12720;DHT22;6424;48.520;11.228;2023-02-11T16:38:32;4.10;99.90
12720;DHT22;6424;48.520;11.228;2023-02-11T16:41:13;4.10;99.90
12720;DHT22;6424;48.520;11.228;2023-02-11T16:43:39;4.00;99.90
12720;DHT22;6424;48.520;11.228;2023-02-11T16:46:05;4.00;99.90
12720;DHT22;6424;48.520;11.228;2023-02-11T16:48:45;4.00;99.90
12720;DHT22;6424;48.520;11.228;2023-02-11T16:51:26;3.90;99.90
12720;DHT22;6424;48.520;11.228;2023-02-11T16:54:13;3.90;99.90
12720;DHT22;6424;48.520;11.228;2023-02-11T16:56:54;3.90;99.90
12720;DHT22;6424;48.520;11.228;2023-02-11T16:59:36;3.80;99.90
12720;DHT22;6424;48.520;11.228;2023-02-11T17:02:21;3.80;99.90
12720;DHT22;6424;48.520;11.228;2023-02-11T17:05:06;3.80;99.90
12720;DHT22;6424;48.520;11.228;2023-02-11T17:07:48;3.80;99.90
12720;DHT22;6424;48.520;11.228;2023-02-11T17:10:29;3.70;99.90
12720;DHT22;6424;48.520;11.228;2023-02-11T17:13:10;3.70;99.90
12720;DHT22;6424;48.520;11.228;2023-02-11T17:15:52;3.70;99.90
12720;DHT22;6424;48.520;11.228;2023-02-11T17:18:33;3.60;99.90
12720;DHT22;6424;48.520;11.228;2023-02-11T17:21:15;3.60;99.90
12720;DHT22;6424;48.520;11.228;2023-02-11T17:23:59;3.50;99.90
12720;DHT22;6424;48.520;11.228;2023-02-11T17:26:41;3.50;99.90
12720;DHT22;6424;48.520;11.228;2023-02-11T17:29:23;3.40;99.90
12720;DHT22;6424;48.520;11.228;2023-02-11T17:31:50;3.40;99.90
12720;DHT22;6424;48.520;11.228;2023-02-11T17:34:31;3.30;99.90
12720;DHT22;6424;48.520;11.228;2023-02-11T17:37:12;3.20;99.90
12720;DHT22;6424;48.520;11.228;2023-02-11T17:39:53;3.20;99.90
12720;DHT22;6424;48.520;11.228;2023-02-11T17:42:33;3.20;99.90
12720;DHT22;6424;48.520;11.228;2023-02-11T17:45:14;3.20;99.90
12720;DHT22;6424;48.520;11.228;2023-02-11T17:47:55;3.20;99.90
12720;DHT22;6424;48.520;11.228;2023-02-11T17:50:36;3.20;99.90
12720;DHT22;6424;48.520;11.228;2023-02-11T17:53:16;3.10;99.90
12720;DHT22;6424;48.520;11.228;2023-02-11T17:55:57;3.10;99.90
12720;DHT22;6424;48.520;11.228;2023-02-11T17:58:40;3.10;99.90
12720;DHT22;6424;48.520;11.228;2023-02-11T18:01:21;3.20;99.90
12720;DHT22;6424;48.520;11.228;2023-02-11T18:04:02;3.20;99.90
12720;DHT22;6424;48.520;11.228;2023-02-11T18:06:44;3.10;99.90
12720;DHT22;6424;48.520;11.228;2023-02-11T18:09:25;3.20;99.90
12720;DHT22;6424;48.520;11.228;2023-02-11T18:12:06;3.20;99.90
12720;DHT22;6424;48.520;11.228;2023-02-11T18:14:47;3.20;99.90
12720;DHT22;6424;48.520;11.228;2023-02-11T18:17:28;3.20;99.90
12720;DHT22;6424;48.520;11.228;2023-02-11T18:20:09;3.30;99.90
12720;DHT22;6424;48.520;11.228;2023-02-11T18:22:50;3.30;99.90
12720;DHT22;6424;48.520;11.228;2023-02-11T18:25:31;3.30;99.90
12720;DHT22;6424;48.520;11.228;2023-02-11T18:28:12;3.30;99.90
12720;DHT22;6424;48.520;11.228;2023-02-11T18:30:57;3.30;99.90
12720;DHT22;6424;48.520;11.228;2023-02-11T18:33:38;3.30;99.90
12720;DHT22;6424;48.520;11.228;2023-02-11T18:36:20;3.30;99.90
12720;DHT22;6424;48.520;11.228;2023-02-11T18:39:01;3.30;99.90
12720;DHT22;6424;48.520;11.228;2023-02-11T18:41:27;3.30;99.90
12720;DHT22;6424;48.520;11.228;2023-02-11T18:44:09;3.30;99.90
12720;DHT22;6424;48.520;11.228;2023-02-11T18:46:51;3.30;99.90
12720;DHT22;6424;48.520;11.228;2023-02-11T18:49:32;3.30;99.90
12720;DHT22;6424;48.520;11.228;2023-02-11T18:52:15;3.30;99.90
12720;DHT22;6424;48.520;11.228;2023-02-11T18:54:55;3.30;99.90
12720;DHT22;6424;48.520;11.228;2023-02-11T18:57:36;3.30;99.90
12720;DHT22;6424;48.520;11.228;2023-02-11T19:00:18;3.40;99.90
12720;DHT22;6424;48.520;11.228;2023-02-11T19:02:59;3.40;99.90
12720;DHT22;6424;48.520;11.228;2023-02-11T19:05:43;3.40;99.90
12720;DHT22;6424;48.520;11.228;2023-02-11T19:08:24;3.40;99.90
12720;DHT22;6424;48.520;11.228;2023-02-11T19:11:05;3.40;99.90
12720;DHT22;6424;48.520;11.228;2023-02-11T19:13:46;3.40;99.90
12720;DHT22;6424;48.520;11.228;2023-02-11T19:16:27;3.50;99.90
12720;DHT22;6424;48.520;11.228;2023-02-11T19:19:08;3.40;99.90
12720;DHT22;6424;48.520;11.228;2023-02-11T19:21:34;3.40;99.90
12720;DHT22;6424;48.520;11.228;2023-02-11T19:24:04;3.40;99.90
12720;DHT22;6424;48.520;11.228;2023-02-11T19:26:48;3.50;99.90
12720;DHT22;6424;48.520;11.228;2023-02-11T19:29:30;3.50;99.90
12720;DHT22;6424;48.520;11.228;2023-02-11T19:32:14;3.40;99.90
12720;DHT22;6424;48.520;11.228;2023-02-11T19:34:55;3.40;99.90
12720;DHT22;6424;48.520;11.228;2023-02-11T19:37:36;3.40;99.90
12720;DHT22;6424;48.520;11.228;2023-02-11T19:40:16;3.40;99.90
12720;DHT22;6424;48.520;11.228;2023-02-11T19:42:58;3.40;99.90